Airfield :
LOGIN :

Register | Disclaimer

   EN    FR    IT 

 










Legend :    VFR   Marginal VFR   IFR   Intensive IFR   Very Intensive IFR
Visi :
Ceiling :
>= 8 km
>= 3000ft
5 to 8 km
1000 to 3000 ft
1500m to 5 km
500 to 1000 ft
800 to 1500m
200 to 500 ft
< 800m
< 200 ft
Symbols :   Thunderstorms  Fog  Heavy snow  Heavy precipitations  Wind > 20 kt
SIGMETs :     Misc.  Thunderstorms  Icing  Turbulence  Mountain Waves  Volcanic Ashes







- Airport Elevation : 325 ft
- IATA code : BES
- Download approach charts


LFRB - Brest

CURRENT METAR :
  • 211500Z AUTO 20011KT CAVOK 25/12 Q1015 NOSIG

EXPIRED METARs :
  • 211430Z AUTO 20011KT CAVOK 25/13 Q1015 NOSIG
  • 211400Z AUTO 19011KT 150V220 CAVOK 26/11 Q1015 NOSIG
  • 211330Z AUTO 19012KT CAVOK 26/13 Q1016 NOSIG
  • 211300Z AUTO 19012KT 160V220 CAVOK 25/13 Q1016 NOSIG
  • 211230Z AUTO 19010KT CAVOK 25/12 Q1016 NOSIG

TAF TAF LFRB
Valid from the 21 at 12:00 until the 22 at 18:00 UTC


211100Z 2112/2218 19007KT CAVOK
BECMG 2200/2203 3000 BR BKN005
PROB30
TEMPO 2204/2208 0500 FG OVC002
BECMG 2209/2212 27007KT SCT012
BECMG 2215/2218 OVC010
ATIS : +33 2 98 32 02 71
No reported NOTAMs for that airfield.



MET'MAP, your aeronautical weather chart ! - Copyright ORBIFLY December 2007 - Disclaimer

ORBIFLY MET'MAP TEAM :

Programming & Development : Alexandra Zaïnal
Concept & Development : Baudouin d'Aumeries
Co-Development & Prog : Marc-Olivier Méhu
Technical & hardware support : Manuel Goepfert

Contact : metmap@orbifly.com




SOURCES & CREDITS :

   NOAA